createdAt,value
2022-11-29T00:01:39.068Z,31.85
2022-11-29T00:04:06.583Z,32.65
2022-11-29T00:06:35.119Z,31.13
2022-11-29T00:09:07.497Z,31.92
2022-11-29T00:11:56.051Z,31.00
2022-11-29T00:14:25.163Z,30.25
2022-11-29T00:16:55.891Z,33.30
2022-11-29T00:19:23.270Z,33.72
2022-11-29T00:21:50.355Z,33.33
2022-11-29T00:24:17.620Z,31.80
2022-11-29T00:26:44.415Z,32.33
2022-11-29T00:29:13.084Z,31.50
2022-11-29T00:31:41.040Z,31.48
2022-11-29T00:34:11.387Z,29.38
2022-11-29T00:36:39.473Z,29.23
2022-11-29T00:39:06.842Z,30.95
2022-11-29T00:41:33.807Z,30.38
2022-11-29T00:44:00.801Z,33.03
2022-11-29T00:46:27.725Z,30.05
2022-11-29T00:48:54.612Z,28.63
2022-11-29T00:51:21.382Z,31.00
2022-11-29T00:53:48.228Z,32.20
2022-11-29T00:56:15.037Z,32.40
2022-11-29T00:58:43.572Z,32.13
2022-11-29T01:01:11.741Z,32.65
2022-11-29T01:03:38.746Z,32.95
2022-11-29T01:06:12.698Z,31.02
2022-11-29T01:08:40.580Z,30.80
2022-11-29T01:11:16.574Z,32.40
2022-11-29T01:13:44.113Z,31.45
2022-11-29T01:16:11.898Z,31.60
2022-11-29T01:18:39.654Z,30.00
2022-11-29T01:21:19.996Z,30.30
2022-11-29T01:23:48.535Z,28.55
2022-11-29T01:26:20.895Z,29.85
2022-11-29T01:28:52.174Z,30.55
2022-11-29T01:31:26.445Z,29.08
2022-11-29T01:33:55.558Z,30.00
2022-11-29T01:36:23.679Z,30.30
2022-11-29T01:38:50.669Z,28.30
2022-11-29T01:41:25.570Z,29.15
2022-11-29T01:44:28.326Z,29.10
2022-11-29T01:46:57.021Z,29.17
2022-11-29T01:49:32.406Z,30.23
2022-11-29T01:52:08.239Z,28.38
2022-11-29T01:54:42.095Z,27.63
2022-11-29T01:57:10.142Z,28.02
2022-11-29T01:59:43.739Z,27.42
2022-11-29T02:02:20.152Z,28.75
2022-11-29T02:04:48.858Z,26.60
2022-11-29T02:07:16.543Z,25.75
2022-11-29T02:09:43.309Z,25.98
2022-11-29T02:12:52.774Z,25.73
2022-11-29T02:16:00.949Z,26.73
2022-11-29T02:18:52.686Z,25.00
2022-11-29T02:21:38.029Z,25.48
2022-11-29T02:24:48.054Z,26.10
2022-11-29T02:28:03.990Z,25.63
2022-11-29T02:30:54.825Z,25.85
2022-11-29T02:33:30.435Z,24.42
2022-11-29T02:36:31.334Z,25.15
2022-11-29T02:39:25.469Z,25.45
2022-11-29T02:42:55.793Z,24.52
2022-11-29T02:45:58.587Z,25.88
2022-11-29T02:48:46.902Z,23.92
2022-11-29T02:51:25.676Z,26.95
2022-11-29T02:54:26.631Z,23.10
2022-11-29T02:57:14.446Z,21.15
2022-11-29T03:00:05.822Z,24.65
2022-11-29T03:02:42.583Z,23.15
2022-11-29T03:05:27.542Z,23.27
2022-11-29T03:08:21.554Z,23.10
2022-11-29T03:11:18.375Z,20.92
2022-11-29T03:14:17.260Z,21.10
2022-11-29T03:17:25.478Z,22.35
2022-11-29T03:20:27.934Z,19.27
2022-11-29T03:23:14.885Z,21.08
2022-11-29T03:26:10.529Z,21.55
2022-11-29T03:28:54.957Z,20.70
2022-11-29T03:31:26.467Z,21.73
2022-11-29T03:34:19.429Z,20.73
2022-11-29T03:36:59.914Z,21.25
2022-11-29T03:39:45.023Z,21.23
2022-11-29T03:42:25.105Z,22.42
2022-11-29T03:45:24.325Z,25.30
2022-11-29T03:48:23.502Z,22.02
2022-11-29T03:51:27.722Z,24.25
2022-11-29T03:54:02.377Z,23.50
2022-11-29T03:56:34.848Z,22.95
2022-11-29T03:59:19.018Z,21.58
2022-11-29T04:01:54.656Z,22.83
2022-11-29T04:05:14.579Z,22.73
2022-11-29T04:08:21.458Z,21.25
2022-11-29T04:11:10.410Z,22.77
2022-11-29T04:13:58.454Z,23.52
2022-11-29T04:17:25.422Z,22.33
2022-11-29T04:20:16.246Z,20.88
2022-11-29T04:23:17.832Z,24.23
2022-11-29T04:26:47.754Z,21.33
2022-11-29T04:29:45.523Z,19.33
2022-11-29T04:32:22.260Z,21.90
2022-11-29T04:35:20.870Z,24.08
2022-11-29T04:38:15.521Z,24.67
2022-11-29T04:41:14.647Z,21.30
2022-11-29T04:44:02.079Z,22.25
2022-11-29T04:46:41.514Z,21.42
2022-11-29T04:50:01.599Z,20.50
2022-11-29T04:53:20.735Z,23.05
2022-11-29T04:56:21.542Z,20.23
2022-11-29T04:59:12.721Z,21.95
2022-11-29T05:02:13.889Z,19.33
2022-11-29T05:05:08.079Z,16.45
2022-11-29T05:07:58.790Z,16.30
2022-11-29T05:10:40.358Z,16.98
2022-11-29T05:13:40.593Z,15.98
2022-11-29T05:16:16.529Z,16.80
2022-11-29T05:19:07.969Z,16.30
2022-11-29T05:22:06.590Z,15.88
2022-11-29T05:25:19.872Z,16.45
2022-11-29T05:28:25.969Z,17.70
2022-11-29T05:31:25.784Z,16.20
2022-11-29T05:34:14.346Z,15.18
2022-11-29T05:37:12.498Z,16.23
2022-11-29T05:39:42.098Z,17.90
2022-11-29T05:42:38.479Z,16.23
2022-11-29T05:45:27.472Z,18.15
2022-11-29T05:48:13.738Z,18.00
2022-11-29T05:51:00.483Z,16.90
2022-11-29T05:53:41.061Z,16.02
2022-11-29T05:56:40.370Z,16.10
2022-11-29T05:59:19.054Z,17.05
2022-11-29T06:01:55.693Z,17.98
2022-11-29T06:04:38.473Z,17.02
2022-11-29T06:07:32.158Z,20.17
2022-11-29T06:10:18.424Z,16.75
2022-11-29T06:13:21.909Z,17.17
2022-11-29T06:16:29.575Z,16.58
2022-11-29T06:19:28.278Z,17.08
2022-11-29T06:22:41.034Z,15.02
2022-11-29T06:25:59.466Z,15.05
2022-11-29T06:29:23.810Z,15.27
2022-11-29T06:32:10.886Z,13.90
2022-11-29T06:35:04.291Z,15.90
2022-11-29T06:37:54.750Z,13.57
2022-11-29T06:40:21.863Z,14.93
2022-11-29T06:42:48.910Z,13.27
2022-11-29T06:45:17.010Z,13.00
2022-11-29T06:47:56.724Z,13.00
2022-11-29T06:51:13.150Z,13.10
2022-11-29T06:54:01.030Z,12.93
2022-11-29T06:56:55.594Z,13.10
2022-11-29T06:59:38.213Z,12.25
2022-11-29T07:02:44.410Z,13.65
2022-11-29T07:05:26.027Z,13.00
2022-11-29T07:07:58.134Z,12.55
2022-11-29T07:10:26.632Z,12.10
2022-11-29T07:12:53.765Z,12.38
2022-11-29T07:15:22.633Z,12.85
2022-11-29T07:18:05.495Z,13.30
2022-11-29T07:20:58.978Z,15.10
2022-11-29T07:23:45.172Z,13.60
2022-11-29T07:26:31.369Z,15.18
2022-11-29T07:29:38.299Z,13.93
2022-11-29T07:32:26.093Z,14.85
2022-11-29T07:35:34.094Z,14.63
2022-11-29T07:38:21.886Z,13.85
2022-11-29T07:41:28.112Z,12.48
2022-11-29T07:44:25.732Z,13.52
2022-11-29T07:46:52.607Z,12.70
2022-11-29T07:49:19.438Z,12.45
2022-11-29T07:51:46.309Z,12.38
2022-11-29T07:54:18.510Z,12.20
2022-11-29T07:56:45.846Z,13.70
2022-11-29T07:59:12.916Z,13.05
2022-11-29T08:01:40.864Z,12.60
2022-11-29T08:04:08.805Z,11.15
2022-11-29T08:06:37.091Z,12.27
2022-11-29T08:09:05.058Z,12.43
2022-11-29T08:11:31.865Z,14.52
2022-11-29T08:14:02.682Z,14.65
2022-11-29T08:16:30.085Z,13.85
2022-11-29T08:18:57.011Z,12.15
2022-11-29T08:21:24.078Z,12.68
2022-11-29T08:23:51.546Z,13.98
2022-11-29T08:26:20.954Z,11.48
2022-11-29T08:28:52.233Z,13.20
2022-11-29T08:31:20.962Z,13.55
2022-11-29T08:33:48.146Z,12.68
2022-11-29T08:36:19.690Z,14.50
2022-11-29T08:38:47.998Z,12.27
2022-11-29T08:41:17.796Z,12.82
2022-11-29T08:43:45.095Z,12.85
2022-11-29T08:46:18.260Z,11.20
2022-11-29T08:48:49.490Z,10.88
2022-11-29T08:51:16.690Z,10.45
2022-11-29T08:53:44.533Z,10.30
2022-11-29T08:56:59.612Z,11.02
2022-11-29T08:59:01.329Z,11.88
2022-11-29T09:01:29.268Z,11.65
2022-11-29T09:03:59.426Z,12.63
2022-11-29T09:06:38.217Z,11.00
2022-11-29T09:09:06.354Z,13.52
2022-11-29T09:11:35.758Z,12.25
2022-11-29T09:14:07.954Z,10.90
2022-11-29T09:16:37.766Z,11.45
2022-11-29T09:19:06.153Z,11.32
2022-11-29T09:21:36.628Z,10.23
2022-11-29T09:24:06.395Z,10.60
2022-11-29T09:26:37.814Z,9.68
2022-11-29T09:29:06.956Z,10.00
2022-11-29T09:31:35.365Z,9.85
2022-11-29T09:34:02.299Z,9.52
2022-11-29T09:36:30.894Z,9.52
2022-11-29T09:38:59.302Z,8.80
2022-11-29T09:41:56.843Z,10.07
2022-11-29T09:44:55.950Z,9.65
2022-11-29T09:47:50.029Z,9.80
2022-11-29T09:50:35.426Z,10.77
2022-11-29T09:53:43.508Z,11.45
2022-11-29T09:56:40.652Z,10.75
2022-11-29T09:59:33.772Z,10.02
2022-11-29T10:02:20.860Z,11.38
2022-11-29T10:05:02.939Z,13.30
2022-11-29T10:07:54.088Z,14.18
2022-11-29T10:10:33.569Z,12.82
2022-11-29T10:13:25.239Z,11.98
2022-11-29T10:16:01.402Z,12.30
2022-11-29T10:18:48.717Z,13.93
2022-11-29T10:21:28.375Z,12.32
2022-11-29T10:24:02.627Z,12.93
2022-11-29T10:26:34.779Z,11.52
2022-11-29T10:29:02.587Z,13.48
2022-11-29T10:31:42.769Z,13.40
2022-11-29T10:34:25.971Z,13.45
2022-11-29T10:36:59.790Z,14.63
2022-11-29T10:39:53.026Z,13.35
2022-11-29T10:42:42.065Z,12.60
2022-11-29T10:45:25.870Z,13.60
2022-11-29T10:48:02.279Z,14.60
2022-11-29T10:50:34.358Z,13.98
2022-11-29T10:53:25.318Z,14.45
2022-11-29T10:56:08.903Z,14.40
2022-11-29T10:58:36.428Z,15.15
2022-11-29T11:01:08.566Z,14.60
2022-11-29T11:03:54.219Z,13.90
2022-11-29T11:06:27.192Z,13.90
2022-11-29T11:09:11.085Z,13.82
2022-11-29T11:11:39.461Z,13.15
2022-11-29T11:14:28.937Z,14.02
2022-11-29T11:16:56.747Z,14.10
2022-11-29T11:19:33.346Z,15.15
2022-11-29T11:22:03.999Z,13.60
2022-11-29T11:24:36.381Z,13.10
2022-11-29T11:27:04.094Z,13.68
2022-11-29T11:29:44.298Z,13.90
2022-11-29T11:32:20.038Z,14.07
2022-11-29T11:34:59.517Z,14.52
2022-11-29T11:37:28.825Z,14.38
2022-11-29T11:40:18.836Z,15.18
2022-11-29T11:42:46.783Z,15.02
2022-11-29T11:45:13.508Z,14.13
2022-11-29T11:47:57.886Z,13.90
2022-11-29T11:50:31.355Z,13.68
2022-11-29T11:53:04.062Z,12.10
2022-11-29T11:55:40.433Z,13.02
2022-11-29T11:58:13.014Z,12.57
2022-11-29T12:01:04.294Z,13.10
2022-11-29T12:03:37.708Z,12.85
2022-11-29T12:06:30.099Z,13.50
2022-11-29T12:09:18.456Z,13.60
2022-11-29T12:12:00.037Z,15.45
2022-11-29T12:14:45.115Z,19.85
2022-11-29T12:17:43.708Z,20.15
2022-11-29T12:20:21.795Z,17.25
2022-11-29T12:23:11.595Z,16.85
2022-11-29T12:25:58.852Z,16.55
2022-11-29T12:28:34.772Z,15.82
2022-11-29T12:31:38.850Z,14.80
2022-11-29T12:34:56.582Z,13.02
2022-11-29T12:37:46.316Z,12.38
2022-11-29T12:40:32.567Z,12.35
2022-11-29T12:43:40.998Z,12.60
2022-11-29T12:46:25.753Z,12.25
2022-11-29T12:49:23.022Z,13.32
2022-11-29T12:52:05.824Z,13.73
2022-11-29T12:54:51.509Z,13.23
2022-11-29T12:57:40.502Z,12.23
2022-11-29T13:00:14.668Z,13.25
2022-11-29T13:03:12.239Z,14.00
2022-11-29T13:05:58.678Z,13.40
2022-11-29T13:08:37.953Z,12.18
2022-11-29T13:11:40.111Z,10.82
2022-11-29T13:14:44.035Z,10.90
2022-11-29T13:17:51.235Z,11.45
2022-11-29T13:20:29.520Z,11.32
2022-11-29T13:24:11.932Z,11.05
2022-11-29T13:26:43.597Z,11.85
2022-11-29T13:29:18.610Z,11.82
2022-11-29T13:31:47.953Z,12.00
2022-11-29T13:34:44.444Z,20.05
2022-11-29T13:37:37.475Z,14.70
2022-11-29T13:40:39.938Z,13.57
2022-11-29T13:43:24.726Z,13.18
2022-11-29T13:46:16.618Z,12.50
2022-11-29T13:48:48.613Z,12.43
2022-11-29T13:51:41.779Z,11.82
2022-11-29T13:54:30.759Z,12.43
2022-11-29T13:57:06.160Z,13.05
2022-11-29T13:59:40.505Z,12.07
2022-11-29T14:02:43.607Z,12.15
2022-11-29T14:05:27.493Z,13.05
2022-11-29T14:08:23.201Z,12.35
2022-11-29T14:10:53.005Z,12.70
2022-11-29T14:13:31.514Z,12.68
2022-11-29T14:16:04.003Z,11.25
2022-11-29T14:18:42.751Z,11.70
2022-11-29T14:21:10.339Z,11.13
2022-11-29T14:23:42.650Z,12.35
2022-11-29T14:26:09.430Z,12.43
2022-11-29T14:28:39.895Z,11.95
2022-11-29T14:31:09.111Z,11.73
2022-11-29T14:34:17.874Z,12.88
2022-11-29T14:37:02.867Z,11.65
2022-11-29T14:39:47.844Z,11.82
2022-11-29T14:42:22.256Z,12.13
2022-11-29T14:44:57.604Z,12.32
2022-11-29T14:47:48.728Z,11.38
2022-11-29T14:50:39.325Z,11.70
2022-11-29T14:53:28.412Z,12.05
2022-11-29T14:56:35.154Z,11.60
2022-11-29T14:59:47.937Z,11.95
2022-11-29T15:02:39.428Z,11.38
2022-11-29T15:05:34.822Z,11.05
2022-11-29T15:08:34.776Z,11.20
2022-11-29T15:11:50.445Z,12.15
2022-11-29T15:14:51.426Z,11.25
2022-11-29T15:17:58.891Z,11.05
2022-11-29T15:20:57.171Z,11.23
2022-11-29T15:23:24.019Z,11.55
2022-11-29T15:25:59.565Z,11.25
2022-11-29T15:28:30.048Z,11.88
2022-11-29T15:31:09.713Z,11.40
2022-11-29T15:33:42.094Z,10.85
2022-11-29T15:36:18.948Z,11.95
2022-11-29T15:38:53.238Z,12.20
2022-11-29T15:41:31.935Z,12.07
2022-11-29T15:44:06.076Z,12.00
2022-11-29T15:46:35.542Z,12.23
2022-11-29T15:49:24.662Z,12.80
2022-11-29T15:51:59.555Z,13.93
2022-11-29T15:54:40.867Z,13.32
2022-11-29T15:57:42.755Z,12.73
2022-11-29T16:00:23.011Z,13.82
2022-11-29T16:03:04.876Z,14.93
2022-11-29T16:05:36.399Z,15.07
2022-11-29T16:08:15.978Z,15.52
2022-11-29T16:10:51.554Z,15.68
2022-11-29T16:13:41.255Z,15.35
2022-11-29T16:16:20.298Z,16.30
2022-11-29T16:18:49.987Z,21.25
2022-11-29T16:21:28.935Z,19.85
2022-11-29T16:23:57.579Z,20.70
2022-11-29T16:26:34.434Z,20.00
2022-11-29T16:29:01.910Z,19.48
2022-11-29T16:31:36.193Z,20.55
2022-11-29T16:34:33.034Z,18.60
2022-11-29T16:37:21.284Z,18.42
2022-11-29T16:39:52.586Z,18.05
2022-11-29T16:42:30.111Z,17.27
2022-11-29T16:45:33.348Z,17.13
2022-11-29T16:48:01.534Z,17.95
2022-11-29T16:50:31.441Z,18.33
2022-11-29T16:53:43.287Z,19.08
2022-11-29T16:56:15.794Z,17.15
2022-11-29T16:59:17.242Z,17.45
2022-11-29T17:01:33.160Z,16.90
2022-11-29T17:04:00.514Z,15.68
2022-11-29T17:06:29.874Z,15.23
2022-11-29T17:08:59.244Z,17.02
2022-11-29T17:11:26.957Z,15.30
2022-11-29T17:13:53.830Z,13.65
2022-11-29T17:16:23.970Z,14.55
2022-11-29T17:18:52.717Z,15.02
2022-11-29T17:21:26.549Z,18.85
2022-11-29T17:23:54.102Z,17.98
2022-11-29T17:26:22.095Z,20.85
2022-11-29T17:28:51.281Z,23.25
2022-11-29T17:31:22.422Z,22.00
2022-11-29T17:33:49.558Z,21.27
2022-11-29T17:36:19.889Z,20.27
2022-11-29T17:38:48.114Z,23.95
2022-11-29T17:41:20.726Z,22.42
2022-11-29T17:43:48.088Z,19.35
2022-11-29T17:46:24.633Z,19.45
2022-11-29T17:48:52.619Z,18.55
2022-11-29T17:51:50.577Z,17.95
2022-11-29T17:54:10.122Z,19.10
2022-11-29T17:56:36.917Z,17.10
2022-11-29T17:59:04.714Z,15.85
2022-11-29T18:01:34.842Z,17.33
2022-11-29T18:04:05.498Z,15.05
2022-11-29T18:06:39.731Z,14.63
2022-11-29T18:09:09.071Z,15.65
2022-11-29T18:11:48.072Z,15.15
2022-11-29T18:14:20.409Z,16.02
2022-11-29T18:16:47.426Z,18.25
2022-11-29T18:19:18.822Z,17.30
2022-11-29T18:21:46.542Z,15.48
2022-11-29T18:24:13.891Z,14.05
2022-11-29T18:26:41.462Z,14.02
2022-11-29T18:29:09.475Z,12.73
2022-11-29T18:31:40.994Z,14.20
2022-11-29T18:34:11.124Z,15.85
2022-11-29T18:36:44.928Z,24.90
2022-11-29T18:39:18.833Z,26.30
2022-11-29T18:41:50.157Z,21.85
2022-11-29T18:44:21.323Z,16.98
2022-11-29T18:46:48.630Z,19.10
2022-11-29T18:49:17.970Z,18.63
2022-11-29T18:51:46.327Z,18.45
2022-11-29T18:54:15.857Z,15.63
2022-11-29T18:56:44.350Z,22.00
2022-11-29T18:59:17.043Z,19.05
2022-11-29T19:01:47.493Z,20.00
2022-11-29T19:04:20.609Z,15.13
2022-11-29T19:06:48.043Z,15.90
2022-11-29T19:09:20.835Z,14.65
2022-11-29T19:11:49.382Z,15.57
2022-11-29T19:14:16.672Z,16.00
2022-11-29T19:16:47.475Z,16.33
2022-11-29T19:19:14.586Z,15.23
2022-11-29T19:21:41.944Z,13.63
2022-11-29T19:24:14.557Z,14.18
2022-11-29T19:26:44.605Z,14.50
2022-11-29T19:29:13.492Z,14.20
2022-11-29T19:31:40.467Z,12.85
2022-11-29T19:34:07.523Z,11.93
2022-11-29T19:36:34.400Z,12.00
2022-11-29T19:39:02.215Z,11.82
2022-11-29T19:41:32.711Z,10.70
2022-11-29T19:44:06.423Z,11.35
2022-11-29T19:46:37.713Z,10.25
2022-11-29T19:49:07.267Z,11.00
2022-11-29T19:51:35.983Z,27.83
2022-11-29T19:54:06.321Z,47.78
2022-11-29T19:56:33.524Z,21.75
2022-11-29T19:59:00.342Z,12.38
2022-11-29T20:01:37.901Z,9.77
2022-11-29T20:04:07.374Z,10.20
2022-11-29T20:06:34.477Z,9.75
2022-11-29T20:09:02.134Z,10.85
2022-11-29T20:11:29.195Z,18.63
2022-11-29T20:13:59.970Z,14.50
2022-11-29T20:16:29.513Z,12.35
2022-11-29T20:18:57.892Z,11.80
2022-11-29T20:21:32.423Z,9.48
2022-11-29T20:24:03.807Z,9.50
2022-11-29T20:26:34.767Z,9.93
2022-11-29T20:29:02.158Z,10.48
2022-11-29T20:31:29.689Z,10.55
2022-11-29T20:34:00.160Z,10.15
2022-11-29T20:37:08.252Z,9.40
2022-11-29T20:40:09.156Z,9.15
2022-11-29T20:42:52.550Z,8.38
2022-11-29T20:45:19.803Z,8.93
2022-11-29T20:48:23.046Z,9.68
2022-11-29T20:51:01.554Z,8.77
2022-11-29T20:53:40.167Z,9.05
2022-11-29T20:56:08.427Z,8.80
2022-11-29T20:58:35.341Z,7.80
2022-11-29T21:01:02.866Z,8.40
2022-11-29T21:03:30.255Z,9.13
2022-11-29T21:06:01.591Z,8.77
2022-11-29T21:08:29.077Z,8.05
2022-11-29T21:11:06.587Z,7.45
2022-11-29T21:13:34.412Z,8.32
2022-11-29T21:16:01.979Z,8.23
2022-11-29T21:18:31.399Z,7.80
2022-11-29T21:21:14.024Z,8.50
2022-11-29T21:24:23.185Z,7.78
2022-11-29T21:26:53.411Z,8.18
2022-11-29T21:29:22.903Z,8.55
2022-11-29T21:31:54.946Z,7.88
2022-11-29T21:34:22.136Z,7.82
2022-11-29T21:36:56.843Z,8.20
2022-11-29T21:39:32.069Z,7.55
2022-11-29T21:41:59.105Z,8.10
2022-11-29T21:44:25.938Z,8.63
2022-11-29T21:46:52.815Z,7.78
2022-11-29T21:49:19.631Z,7.78
2022-11-29T21:51:46.362Z,8.50
2022-11-29T21:54:13.242Z,7.70
2022-11-29T21:56:40.011Z,7.82
2022-11-29T21:59:06.762Z,8.23
2022-11-29T22:01:33.846Z,7.78
2022-11-29T22:04:01.095Z,7.85
2022-11-29T22:06:29.256Z,7.65
2022-11-29T22:08:56.413Z,8.05
2022-11-29T22:11:35.198Z,8.25
2022-11-29T22:14:15.818Z,7.82
2022-11-29T22:17:09.048Z,7.88
2022-11-29T22:19:36.366Z,8.18
2022-11-29T22:22:06.351Z,7.47
2022-11-29T22:24:36.311Z,7.53
2022-11-29T22:27:03.610Z,8.77
2022-11-29T22:29:30.461Z,8.85
2022-11-29T22:31:59.247Z,8.55
2022-11-29T22:34:27.541Z,8.00
2022-11-29T22:36:54.880Z,8.45
2022-11-29T22:39:23.914Z,8.38
2022-11-29T22:41:54.606Z,8.43
2022-11-29T22:44:24.812Z,8.32
2022-11-29T22:46:51.874Z,8.10
2022-11-29T22:49:18.783Z,8.60
2022-11-29T22:51:45.623Z,8.43
2022-11-29T22:54:15.283Z,10.02
2022-11-29T22:56:44.351Z,8.80
2022-11-29T22:59:11.546Z,8.15
2022-11-29T23:01:40.980Z,8.88
2022-11-29T23:04:10.300Z,9.10
2022-11-29T23:06:41.853Z,8.60
2022-11-29T23:09:22.213Z,8.07
2022-11-29T23:11:53.647Z,8.25
2022-11-29T23:14:22.343Z,8.48
2022-11-29T23:16:49.462Z,8.48
2022-11-29T23:19:16.292Z,8.48
2022-11-29T23:21:45.685Z,8.55
2022-11-29T23:24:14.695Z,8.85
2022-11-29T23:26:45.961Z,8.98
2022-11-29T23:29:16.972Z,8.57
2022-11-29T23:31:44.436Z,8.75
2022-11-29T23:34:11.465Z,8.77
2022-11-29T23:36:38.534Z,9.70
2022-11-29T23:39:06.700Z,9.63
2022-11-29T23:41:35.616Z,8.80
2022-11-29T23:44:06.778Z,9.57
2022-11-29T23:46:35.698Z,9.68
2022-11-29T23:49:02.804Z,9.77
2022-11-29T23:51:29.649Z,9.93
2022-11-29T23:53:56.391Z,9.55
2022-11-29T23:56:23.151Z,10.07
2022-11-29T23:58:50.304Z,9.52
